In Rescue
 
Open Full Screen Window  High Contrast Mode
June 26, 2019 9:56 PM EDT
Weather Information
Wind Direction
  ---
Wind Speed
  00 kt (0 mph)
Wind Gust
  00 kt (0 mph)
Altimeter
30.14 in
Visibility
10 SM
Temperature
27° C
81° F
Dewpoint
20° C
68° F
Humidity
66%
1hr Rain Fall
00.00 in.
24hr Rain Fall
00.00 in.
Sky Condition
Clear
VFR

METAR KI69 270156Z AUTO 00000KT 10SM CLR 27/20 A3014 RMK AO2 T02650197

FAA Disclaimer: The data displayed is for advisory purposes only and is not to be used for flight planning or operations.